Time;durP1;ratioP1;P1;durP2;ratioP2;P2;SDS_P1;SDS_P2;PMS_P1;PMS_P2;Temp;Humidity;BMP_temperature;BMP_pressure;BME280_temperature;BME280_humidity;BME280_pressure;Samples;Min_cycle;Max_cycle;Signal;HPM_P1;HPM_P2
2023/06/22 00:04:15;;;;;;;17.17;10.88;;;;;;;16.96;100.00;101970.53;10435882;28;20041;-69
2023/06/22 00:09:16;;;;;;;17.10;11.23;;;;;;;16.93;100.00;101977.47;10420088;28;20045;-68
2023/06/22 00:14:17;;;;;;;23.15;12.90;;;;;;;16.86;100.00;101981.59;10418780;28;20048;-69
2023/06/22 00:19:19;;;;;;;29.45;15.48;;;;;;;16.87;100.00;101988.84;10417763;28;20057;-68
2023/06/22 00:24:20;;;;;;;19.85;13.80;;;;;;;16.76;100.00;101971.22;10420617;28;20053;-68
2023/06/22 00:29:21;;;;;;;20.15;12.95;;;;;;;16.63;100.00;101978.09;10445211;28;20029;-69
2023/06/22 00:34:22;;;;;;;29.65;18.33;;;;;;;16.57;100.00;101989.47;10458548;28;20033;-69
2023/06/22 00:39:22;;;;;;;33.83;22.17;;;;;;;16.38;100.00;101975.16;10458850;28;20033;-69
2023/06/22 00:44:23;;;;;;;35.67;22.50;;;;;;;16.40;100.00;101984.06;10475073;28;20106;-68
2023/06/22 00:49:23;;;;;;;38.42;24.77;;;;;;;16.47;100.00;101990.22;10460881;28;20071;-68
2023/06/22 00:54:24;;;;;;;42.28;27.02;;;;;;;16.36;100.00;101974.59;10438296;28;20056;-68
2023/06/22 00:59:26;;;;;;;47.80;30.33;;;;;;;16.32;100.00;101975.09;10414073;28;20101;-69
2023/06/22 01:04:35;;;;;;;60.08;32.05;;;;;;;16.33;100.00;101979.56;10397086;28;20047;-68
2023/06/22 01:09:36;;;;;;;52.13;31.08;;;;;;;16.33;100.00;101990.69;10432831;28;20045;-67
2023/06/22 01:14:42;;;;;;;50.72;31.10;;;;;;;16.25;100.00;101977.28;10432840;28;20029;-67
2023/06/22 01:19:47;;;;;;;52.20;33.17;;;;;;;16.14;100.00;101981.06;10433841;28;20047;-67
2023/06/22 01:25:19;;;;;;;51.78;31.58;;;;;;;16.13;100.00;101988.56;10402086;28;20044;-68
2023/06/22 01:30:20;;;;;;;51.30;31.13;;;;;;;16.14;100.00;101981.06;10388541;28;20045;-68
2023/06/22 01:35:20;;;;;;;47.60;29.90;;;;;;;16.06;100.00;101953.78;10431946;28;20527;-68
2023/06/22 01:40:21;;;;;;;51.47;30.23;;;;;;;16.10;100.00;101971.56;10415217;28;20038;-68
2023/06/22 01:45:21;;;;;;;48.17;29.70;;;;;;;16.03;100.00;101957.91;10430203;28;20105;-68
2023/06/22 01:50:22;;;;;;;51.30;31.15;;;;;;;16.02;100.00;101952.63;10414482;28;20037;-67
2023/06/22 01:55:23;;;;;;;49.22;29.73;;;;;;;15.99;100.00;101950.38;10417048;28;20057;-69
2023/06/22 02:00:24;;;;;;;44.17;28.50;;;;;;;15.92;100.00;101956.16;10415434;28;20100;-68
2023/06/22 02:05:26;;;;;;;43.97;28.25;;;;;;;15.89;100.00;101957.50;10408854;28;20049;-65
2023/06/22 02:10:27;;;;;;;48.70;29.17;;;;;;;15.74;100.00;101949.06;10413978;28;20129;-68
2023/06/22 02:15:27;;;;;;;51.75;30.40;;;;;;;15.63;100.00;101963.91;10418825;28;20072;-67
2023/06/22 02:20:28;;;;;;;51.15;30.48;;;;;;;15.64;100.00;101960.84;10373743;28;20037;-67
2023/06/22 02:25:28;;;;;;;53.35;30.48;;;;;;;15.61;100.00;101949.47;10389985;28;20061;-67
2023/06/22 02:30:29;;;;;;;56.10;31.85;;;;;;;15.58;100.00;101955.50;10371409;28;20501;-68
2023/06/22 02:35:35;;;;;;;56.25;32.65;;;;;;;15.58;100.00;101955.50;10389249;28;20042;-68
2023/06/22 02:40:36;;;;;;;59.55;34.42;;;;;;;15.53;100.00;101954.38;10401715;28;20441;-67
2023/06/22 02:45:36;;;;;;;56.88;33.35;;;;;;;15.44;100.00;101955.94;10420368;28;20044;-67
2023/06/22 02:50:36;;;;;;;57.53;35.13;;;;;;;15.50;100.00;101971.56;10430989;28;20064;-68
2023/06/22 02:55:39;;;;;;;65.38;36.72;;;;;;;15.56;100.00;101974.38;10413730;28;20084;-68
2023/06/22 03:00:40;;;;;;;65.97;37.80;;;;;;;15.54;100.00;101983.81;10415129;28;20088;-67
2023/06/22 03:05:40;;;;;;;67.50;37.17;;;;;;;15.53;100.00;101979.34;10415698;28;20037;-68
2023/06/22 03:10:41;;;;;;;64.32;38.17;;;;;;;15.55;100.00;101968.00;10421289;28;20033;-67
2023/06/22 03:15:41;;;;;;;67.32;37.75;;;;;;;15.51;100.00;101970.44;10422123;28;20052;-68
2023/06/22 03:20:41;;;;;;;63.45;36.70;;;;;;;15.50;100.00;101976.25;10405265;28;20561;-67
2023/06/22 03:25:44;;;;;;;62.95;34.92;;;;;;;15.48;100.00;101979.31;10406598;28;20112;-67
2023/06/22 03:30:44;;;;;;;63.88;37.65;;;;;;;15.41;100.00;101967.53;10420307;28;20041;-68
2023/06/22 03:35:47;;;;;;;72.95;38.58;;;;;;;15.52;100.00;101974.91;10387678;28;20033;-68
2023/06/22 03:40:48;;;;;;;72.80;39.88;;;;;;;15.59;100.00;101985.78;10403652;28;20561;-67
2023/06/22 03:45:48;;;;;;;77.35;41.22;;;;;;;15.64;100.00;101974.72;10421845;28;20117;-67
2023/06/22 03:50:49;;;;;;;84.97;46.78;;;;;;;15.79;100.00;101979.63;10421497;28;20034;-67
2023/06/22 03:55:50;;;;;;;82.68;46.17;;;;;;;15.91;100.00;101980.31;10421059;28;20080;-68
2023/06/22 04:00:51;;;;;;;87.43;45.88;;;;;;;15.92;100.00;101964.50;10436252;28;20033;-67
2023/06/22 04:05:52;;;;;;;89.68;47.25;;;;;;;15.93;100.00;101980.03;10419236;28;20499;-68
2023/06/22 04:10:52;;;;;;;90.45;48.83;;;;;;;15.97;100.00;101980.38;10419192;28;20036;-67
2023/06/22 04:15:54;;;;;;;89.82;48.95;;;;;;;16.08;100.00;101982.97;10414245;28;20049;-67
2023/06/22 04:20:55;;;;;;;86.28;46.15;;;;;;;16.15;100.00;101985.53;10418940;28;20073;-66
2023/06/22 04:25:56;;;;;;;93.18;49.53;;;;;;;16.30;100.00;101991.19;10418543;28;20453;-68
2023/06/22 04:31:01;;;;;;;80.10;45.80;;;;;;;16.44;100.00;101982.41;10419972;28;20131;-68
2023/06/22 04:36:03;;;;;;;85.60;46.60;;;;;;;16.43;100.00;101976.00;10402226;28;20037;-67
2023/06/22 04:41:04;;;;;;;75.75;43.30;;;;;;;16.54;100.00;101993.63;10402763;28;20033;-68
2023/06/22 04:46:04;;;;;;;75.70;40.90;;;;;;;16.59;100.00;101971.41;10424991;28;20061;-68
2023/06/22 04:51:05;;;;;;;73.22;39.30;;;;;;;16.65;100.00;101975.88;10417127;28;20049;-67
2023/06/22 04:56:05;;;;;;;57.63;36.15;;;;;;;16.66;100.00;101974.78;10418668;28;20038;-68
2023/06/22 05:01:06;;;;;;;54.67;33.00;;;;;;;16.73;100.00;101978.16;10417568;28;20042;-67
2023/06/22 05:06:06;;;;;;;48.35;32.85;;;;;;;16.73;100.00;101967.03;10432519;28;20068;-68
2023/06/22 05:11:06;;;;;;;55.78;34.97;;;;;;;16.86;100.00;101973.25;10417062;28;20112;-67
2023/06/22 05:16:08;;;;;;;49.92;31.30;;;;;;;16.99;100.00;101970.00;10436173;28;20041;-68
2023/06/22 05:21:09;;;;;;;48.47;30.60;;;;;;;17.05;100.00;101959.72;10458929;28;20096;-68
2023/06/22 05:26:10;;;;;;;42.05;27.92;;;;;;;17.16;100.00;101972.56;10458742;28;20079;-67
2023/06/22 05:31:10;;;;;;;40.20;25.70;;;;;;;17.27;100.00;101960.34;10440231;28;20478;-68
2023/06/22 05:36:12;;;;;;;35.05;24.73;;;;;;;17.36;100.00;101955.09;10456980;28;20481;-67
2023/06/22 05:41:13;;;;;;;31.25;21.67;;;;;;;17.48;100.00;101955.69;10400017;28;20036;-67
2023/06/22 05:46:14;;;;;;;30.13;21.75;;;;;;;17.63;100.00;101943.75;10431020;28;20107;-68
2023/06/22 05:51:14;;;;;;;23.38;18.48;;;;;;;17.79;100.00;101944.59;10415598;28;20359;-67
2023/06/22 05:56:15;;;;;;;27.92;20.02;;;;;;;17.60;100.00;101885.00;10415203;28;20029;-67
2023/06/22 06:01:16;;;;;;;29.02;18.92;;;;;;;18.22;100.00;101930.44;10416503;28;20069;-66
2023/06/22 06:06:16;;;;;;;23.65;16.77;;;;;;;18.53;100.00;101934.81;10415845;28;20056;-67
2023/06/22 06:11:17;;;;;;;24.80;17.15;;;;;;;18.82;100.00;101937.00;10398411;28;20045;-67
2023/06/22 06:16:17;;;;;;;22.88;16.20;;;;;;;19.11;100.00;101936.34;10415709;28;20037;-69
2023/06/22 06:21:18;;;;;;;19.05;14.43;;;;;;;19.41;100.00;101940.94;10414399;28;20034;-70
2023/06/22 06:26:27;;;;;;;15.02;12.90;;;;;;;19.53;100.00;101944.22;10414560;28;20041;-69
2023/06/22 06:31:28;;;;;;;18.70;14.23;;;;;;;19.68;100.00;101948.03;10416442;28;20045;-70
2023/06/22 06:36:28;;;;;;;17.80;13.25;;;;;;;19.85;100.00;101940.09;10413706;28;20041;-70
2023/06/22 06:41:29;;;;;;;16.45;12.30;;;;;;;20.16;100.00;101934.25;10419272;28;20532;-69
2023/06/22 06:46:29;;;;;;;15.80;12.60;;;;;;;20.32;100.00;101927.41;10422514;28;20045;-68
2023/06/22 06:51:30;;;;;;;19.00;12.05;;;;;;;20.61;100.00;101934.09;10422026;28;20037;-67
2023/06/22 06:56:32;;;;;;;18.15;13.30;;;;;;;20.82;100.00;101929.13;10422197;28;20312;-68
2023/06/22 07:01:33;;;;;;;15.43;11.63;;;;;;;21.11;100.00;101927.06;10423873;28;20041;-70
2023/06/22 07:06:34;;;;;;;21.30;11.68;;;;;;;21.41;100.00;101930.56;10409312;28;20041;-67
2023/06/22 07:11:35;;;;;;;15.90;11.43;;;;;;;21.74;100.00;101922.25;10404444;28;20517;-67
2023/06/22 07:16:35;;;;;;;15.02;11.38;;;;;;;21.98;100.00;101922.16;10402597;28;20042;-67
2023/06/22 07:21:36;;;;;;;12.65;9.73;;;;;;;22.15;100.00;101921.56;10400968;28;20037;-68
2023/06/22 07:26:36;;;;;;;12.43;9.65;;;;;;;22.31;100.00;101920.19;10400761;28;20092;-68
2023/06/22 07:31:37;;;;;;;13.02;9.02;;;;;;;22.34;100.00;101905.53;10400757;28;20454;-68
2023/06/22 07:36:37;;;;;;;12.35;9.38;;;;;;;22.55;100.00;101921.97;10402429;28;20038;-67
2023/06/22 07:41:39;;;;;;;13.23;9.88;;;;;;;22.73;100.00;101904.22;10401584;28;20029;-67
2023/06/22 07:46:39;;;;;;;12.88;9.00;;;;;;;23.04;100.00;101906.41;10402769;28;20054;-68
2023/06/22 07:51:39;;;;;;;15.38;9.10;;;;;;;23.26;100.00;101900.03;10399665;28;20068;-67
2023/06/22 07:56:40;;;;;;;10.48;7.78;;;;;;;23.47;100.00;101883.53;10400246;28;20037;-67
2023/06/22 08:01:40;;;;;;;10.38;8.23;;;;;;;23.47;100.00;101863.84;10402674;28;20042;-68
2023/06/22 08:06:41;;;;;;;12.85;7.80;;;;;;;23.45;100.00;101868.13;10397909;28;20033;-68
2023/06/22 08:11:41;;;;;;;10.43;7.55;;;;;;;23.43;100.00;101874.06;10390859;28;20034;-67
2023/06/22 08:16:42;;;;;;;12.05;6.93;;;;;;;23.59;100.00;101873.72;10403447;28;20065;-67
2023/06/22 08:21:42;;;;;;;9.57;7.18;;;;;;;23.47;100.00;101849.78;10420442;28;20049;-67
2023/06/22 08:26:43;;;;;;;9.85;7.00;;;;;;;23.70;100.00;101859.06;10418666;28;20070;-67
2023/06/22 08:31:43;;;;;;;10.95;6.97;;;;;;;23.84;100.00;101858.22;10419170;28;20052;-68
2023/06/22 08:36:44;;;;;;;10.63;5.45;;;;;;;23.97;100.00;101852.47;10418710;28;20300;-68
2023/06/22 08:41:45;;;;;;;7.43;5.30;;;;;;;24.23;100.00;101837.72;10414943;28;20030;-68
2023/06/22 08:46:45;;;;;;;7.90;5.00;;;;;;;24.57;100.00;101842.69;10409290;28;20048;-68
2023/06/22 08:51:49;;;;;;;7.68;5.30;;;;;;;24.66;100.00;101850.31;10397324;28;20577;-68
2023/06/22 08:56:49;;;;;;;8.82;5.15;;;;;;;24.74;100.00;101825.03;10388175;28;20049;-68
2023/06/22 09:01:50;;;;;;;9.40;5.53;;;;;;;24.97;100.00;101827.69;10376594;28;20034;-68
2023/06/22 09:06:52;;;;;;;8.70;6.32;;;;;;;25.06;100.00;101820.09;10385626;28;20076;-68
2023/06/22 09:11:52;;;;;;;10.85;6.80;;;;;;;25.16;100.00;101828.22;10419019;28;20538;-67
2023/06/22 09:16:53;;;;;;;6.50;4.75;;;;;;;25.36;100.00;101820.28;10388385;28;20430;-68
2023/06/22 09:21:53;;;;;;;8.63;5.65;;;;;;;25.37;100.00;101810.69;10376695;28;20054;-68
2023/06/22 09:26:54;;;;;;;8.68;5.80;;;;;;;25.32;100.00;101805.19;10392014;28;20029;-68
2023/06/22 09:31:54;;;;;;;8.02;5.07;;;;;;;25.42;100.00;101806.84;10391807;28;20041;-67
2023/06/22 09:36:55;;;;;;;10.20;6.70;;;;;;;25.67;100.00;101800.31;10391902;28;20050;-67
2023/06/22 09:41:57;;;;;;;9.77;5.78;;;;;;;25.63;100.00;101792.88;10388781;28;20041;-66
2023/06/22 09:46:57;;;;;;;6.32;4.38;;;;;;;25.75;100.00;101795.84;10431507;28;20045;-68
2023/06/22 09:51:58;;;;;;;7.18;5.38;;;;;;;25.75;100.00;101785.38;10417625;28;20038;-65
2023/06/22 09:56:58;;;;;;;8.73;5.20;;;;;;;25.69;100.00;101792.38;10417256;28;22924;-70
2023/06/22 10:01:59;;;;;;;7.53;4.82;;;;;;;25.76;100.00;101774.94;10417148;28;20037;-70
2023/06/22 10:06:59;;;;;;;12.65;4.88;;;;;;;25.95;100.00;101769.75;10416405;28;20049;-71
2023/06/22 10:12:00;;;;;;;7.88;4.80;;;;;;;26.15;100.00;101753.25;10414878;28;20041;-72
2023/06/22 10:17:01;;;;;;;10.05;5.30;;;;;;;26.01;100.00;101758.31;10395407;28;20053;-75
2023/06/22 10:22:03;;;;;;;10.10;5.00;;;;;;;26.25;100.00;101763.31;10430690;28;20030;-67
2023/06/22 10:27:04;;;;;;;10.90;5.45;;;;;;;26.24;100.00;101756.03;10415735;28;20486;-69
2023/06/22 10:32:05;;;;;;;6.28;4.32;;;;;;;26.40;100.00;101751.47;10411451;28;20044;-67
2023/06/22 10:37:05;;;;;;;6.70;4.43;;;;;;;26.45;100.00;101756.06;10428067;28;20068;-73
2023/06/22 10:42:06;;;;;;;8.68;5.22;;;;;;;26.69;100.00;101746.97;10415189;28;20048;-71
2023/06/22 10:47:06;;;;;;;6.80;4.90;;;;;;;26.66;100.00;101742.81;10415171;28;20041;-72
2023/06/22 10:52:08;;;;;;;10.27;5.80;;;;;;;26.84;100.00;101737.06;10429528;28;20556;-73
2023/06/22 10:57:08;;;;;;;6.72;4.57;;;;;;;26.92;100.00;101736.16;10415020;28;20034;-73
2023/06/22 11:02:08;;;;;;;9.50;5.22;;;;;;;27.14;100.00;101729.28;10414322;28;20053;-71
2023/06/22 11:07:09;;;;;;;7.38;4.65;;;;;;;26.99;100.00;101725.13;10416727;28;20037;-72
2023/06/22 11:12:10;;;;;;;7.75;5.30;;;;;;;26.59;100.00;101719.16;10429941;28;20041;-71
2023/06/22 11:17:10;;;;;;;6.88;5.28;;;;;;;26.84;100.00;101718.09;10414180;28;20076;-70
2023/06/22 11:22:11;;;;;;;8.85;5.53;;;;;;;26.23;100.00;101588.69;10429771;28;20577;-70
2023/06/22 11:27:11;;;;;;;9.93;6.35;;;;;;;27.27;100.00;101701.94;10417610;28;20037;-71
2023/06/22 11:32:12;;;;;;;6.95;5.60;;;;;;;27.06;100.00;101702.78;10406838;28;20037;-72
2023/06/22 11:37:12;;;;;;;7.75;5.03;;;;;;;27.10;100.00;101714.19;10400661;28;20037;-72
2023/06/22 11:42:13;;;;;;;7.70;4.75;;;;;;;27.61;99.17;101688.59;10402996;28;20060;-73
2023/06/22 11:47:13;;;;;;;6.28;3.97;;;;;;;27.51;98.77;101673.72;10402928;28;20494;-71
2023/06/22 11:52:14;;;;;;;5.68;3.65;;;;;;;28.00;100.00;101694.78;10399576;28;20054;-68
2023/06/22 11:57:14;;;;;;;9.13;5.88;;;;;;;28.11;96.85;101684.63;10413016;28;20038;-68
2023/06/22 12:02:15;;;;;;;5.38;4.13;;;;;;;28.44;95.34;101677.97;10419221;28;20083;-68
2023/06/22 12:07:15;;;;;;;6.13;4.68;;;;;;;28.62;93.71;101682.19;10420348;28;20038;-71
2023/06/22 12:12:16;;;;;;;7.35;4.90;;;;;;;28.49;94.10;101669.25;10420718;28;20041;-73
2023/06/22 12:17:16;;;;;;;5.32;3.60;;;;;;;28.38;95.75;101654.72;10418534;28;20033;-74
2023/06/22 12:22:17;;;;;;;8.38;4.65;;;;;;;27.86;93.02;101656.31;10433134;28;20060;-73
2023/06/22 12:27:20;;;;;;;7.25;3.90;;;;;;;27.52;97.17;101634.97;10417477;28;20077;-73
2023/06/22 12:32:20;;;;;;;4.70;3.72;;;;;;;27.72;97.10;101644.50;10418874;28;20072;-73
2023/06/22 12:37:21;;;;;;;8.65;5.00;;;;;;;27.87;97.36;101641.00;10420152;28;20036;-75
2023/06/22 12:42:21;;;;;;;7.38;3.67;;;;;;;28.53;99.57;101639.03;10418971;28;20413;-71
2023/06/22 12:47:22;;;;;;;6.68;4.57;;;;;;;28.55;94.78;101625.34;10419040;28;20508;-73
2023/06/22 12:52:23;;;;;;;5.25;3.58;;;;;;;28.31;92.46;101618.53;10419508;28;20470;-72
2023/06/22 12:57:23;;;;;;;8.80;4.97;;;;;;;28.00;94.12;101621.19;10430424;28;20049;-73
2023/06/22 13:02:24;;;;;;;5.32;4.15;;;;;;;27.33;95.09;101627.03;10419096;28;20053;-71
2023/06/22 13:07:24;;;;;;;6.15;4.00;;;;;;;26.86;97.20;101608.41;10419476;28;20041;-74
2023/06/22 13:12:25;;;;;;;7.07;4.45;;;;;;;26.83;98.94;101631.72;10418879;28;20025;-72
2023/06/22 13:17:25;;;;;;;7.68;3.72;;;;;;;26.64;100.00;101611.59;10417815;28;20041;-71
2023/06/22 13:22:29;;;;;;;5.22;4.03;;;;;;;26.42;100.00;101621.22;10432737;28;20065;-66
2023/06/22 13:27:29;;;;;;;6.82;3.55;;;;;;;26.33;99.72;101626.94;10417060;28;20065;-72
2023/06/22 13:32:30;;;;;;;5.53;3.03;;;;;;;26.23;100.00;101628.19;10418376;28;20034;-71
2023/06/22 13:37:30;;;;;;;6.45;3.38;;;;;;;26.01;100.00;101620.88;10416343;28;20037;-70
2023/06/22 13:42:31;;;;;;;8.20;3.80;;;;;;;26.24;100.00;101635.47;10417223;28;20045;-69
2023/06/22 13:47:31;;;;;;;6.57;5.07;;;;;;;26.21;100.00;101630.53;10413623;28;20104;-69
2023/06/22 13:52:32;;;;;;;6.15;5.00;;;;;;;25.96;100.00;101632.34;10409201;28;20037;-68
2023/06/22 13:57:33;;;;;;;6.93;4.97;;;;;;;25.70;100.00;101609.91;10399212;28;20037;-69
2023/06/22 14:02:34;;;;;;;7.72;4.38;;;;;;;25.58;100.00;101628.34;10414396;28;20049;-67
2023/06/22 14:07:34;;;;;;;6.22;5.13;;;;;;;25.11;100.00;101614.22;10395058;28;20045;-67
2023/06/22 14:12:35;;;;;;;7.60;4.93;;;;;;;24.67;100.00;101615.50;10399737;28;20139;-69
2023/06/22 14:17:35;;;;;;;8.55;5.60;;;;;;;24.53;100.00;101615.66;10403848;28;20037;-68
2023/06/22 14:22:36;;;;;;;8.55;4.03;;;;;;;24.30;100.00;101614.97;10398873;28;20117;-68
2023/06/22 14:27:36;;;;;;;5.68;3.17;;;;;;;24.03;100.00;101604.84;10407266;28;20038;-68
2023/06/22 14:32:37;;;;;;;5.75;3.38;;;;;;;23.75;100.00;101562.88;10389454;28;20425;-67
2023/06/22 14:37:37;;;;;;;6.22;3.45;;;;;;;23.90;100.00;101599.03;10395363;28;20555;-68
2023/06/22 14:42:38;;;;;;;5.82;3.45;;;;;;;23.81;100.00;101600.16;10408506;28;20045;-71
2023/06/22 14:47:39;;;;;;;5.88;3.78;;;;;;;23.66;100.00;101590.16;10396496;28;20595;-71
2023/06/22 14:52:40;;;;;;;5.28;3.10;;;;;;;23.69;100.00;101575.44;10394224;28;20042;-71
2023/06/22 14:57:40;;;;;;;7.60;3.95;;;;;;;23.70;100.00;101557.44;10381431;28;20510;-72
2023/06/22 15:02:41;;;;;;;6.43;3.30;;;;;;;23.56;100.00;101561.22;10377036;28;20038;-68
2023/06/22 15:07:41;;;;;;;7.32;3.53;;;;;;;23.52;100.00;101564.97;10382759;28;20088;-68
2023/06/22 15:12:42;;;;;;;6.05;3.25;;;;;;;23.13;100.00;101519.75;10381874;28;20041;-68
2023/06/22 15:17:42;;;;;;;14.07;3.72;;;;;;;23.37;100.00;101550.22;10397803;28;20030;-70
2023/06/22 15:22:43;;;;;;;6.70;2.83;;;;;;;23.39;100.00;101558.31;10422202;28;20046;-69
2023/06/22 15:27:43;;;;;;;4.28;2.50;;;;;;;23.19;100.00;101542.88;10396508;28;20042;-71
2023/06/22 15:32:49;;;;;;;3.85;2.50;;;;;;;23.23;100.00;101552.31;10382215;28;20497;-70
2023/06/22 15:37:51;;;;;;;5.03;2.00;;;;;;;23.01;100.00;101544.78;10395636;28;20040;-70
2023/06/22 15:42:51;;;;;;;4.38;3.08;;;;;;;22.70;100.00;101539.97;10395270;28;20033;-70
2023/06/22 15:47:52;;;;;;;3.38;2.33;;;;;;;22.33;100.00;101525.19;10391914;28;20050;-71
2023/06/22 15:52:52;;;;;;;4.20;2.17;;;;;;;22.07;100.00;101541.75;10414744;28;20044;-70
2023/06/22 15:57:53;;;;;;;3.10;2.10;;;;;;;21.82;100.00;101526.34;10402122;28;20030;-69
2023/06/22 16:02:53;;;;;;;4.40;1.58;;;;;;;21.51;100.00;101523.38;10402264;28;20040;-69
2023/06/22 16:07:55;;;;;;;3.15;1.80;;;;;;;21.19;100.00;101510.28;10406091;28;20041;-70
2023/06/22 16:12:55;;;;;;;3.10;1.45;;;;;;;20.82;100.00;101503.75;10403006;28;20041;-68
2023/06/22 16:17:56;;;;;;;5.20;1.65;;;;;;;20.65;100.00;101513.56;10401015;28;20048;-69
2023/06/22 16:22:56;;;;;;;3.58;1.55;;;;;;;20.47;100.00;101498.44;10418426;28;20041;-68
2023/06/22 16:27:57;;;;;;;5.85;1.60;;;;;;;20.18;100.00;101487.47;10418557;28;20041;-68
2023/06/22 16:32:58;;;;;;;4.05;1.80;;;;;;;20.13;100.00;101501.53;10420781;28;20033;-69
2023/06/22 16:37:59;;;;;;;3.55;1.70;;;;;;;20.16;100.00;101500.94;10413707;28;20045;-67
2023/06/22 16:42:59;;;;;;;5.22;1.95;;;;;;;20.04;100.00;101492.19;10397540;28;20124;-67
2023/06/22 16:47:59;;;;;;;2.58;1.23;;;;;;;19.71;100.00;101453.00;10397075;28;20037;-68
2023/06/22 16:53:00;;;;;;;3.70;1.58;;;;;;;19.68;100.00;101464.75;10442583;28;20044;-67
2023/06/22 16:58:00;;;;;;;3.92;1.55;;;;;;;19.63;100.00;101462.03;10460760;28;20037;-67
2023/06/22 17:03:03;;;;;;;4.80;1.65;;;;;;;19.50;100.00;101472.81;10442009;28;20037;-67
2023/06/22 17:08:04;;;;;;;2.60;1.20;;;;;;;19.37;100.00;101476.34;10440798;28;20055;-67
2023/06/22 17:13:04;;;;;;;2.92;1.20;;;;;;;19.33;100.00;101478.06;10426982;28;20043;-67
2023/06/22 17:18:06;;;;;;;2.05;1.30;;;;;;;19.37;100.00;101484.72;10445437;28;20067;-66
2023/06/22 17:23:06;;;;;;;2.85;1.25;;;;;;;19.33;100.00;101494.81;10459004;28;20033;-68
2023/06/22 17:28:07;;;;;;;2.80;1.90;;;;;;;19.26;100.00;101502.72;10445768;28;20079;-67
2023/06/22 17:33:14;;;;;;;2.92;1.63;;;;;;;19.20;100.00;101509.47;10458370;28;20045;-68
2023/06/22 17:38:21;;;;;;;5.30;1.95;;;;;;;19.13;100.00;101504.28;10442321;28;20037;-67
2023/06/22 17:43:22;;;;;;;3.45;2.90;;;;;;;19.04;100.00;101504.09;10456421;28;20035;-68
2023/06/22 17:48:23;;;;;;;9.82;7.03;;;;;;;18.99;100.00;101504.13;10457093;28;20523;-69
2023/06/22 17:53:25;;;;;;;9.60;6.80;;;;;;;18.95;100.00;101505.84;10457677;28;20044;-67
2023/06/22 17:58:26;;;;;;;13.25;4.82;;;;;;;18.88;100.00;101517.38;10457562;28;20032;-68
2023/06/22 18:03:26;;;;;;;4.45;3.08;;;;;;;18.77;100.00;101513.00;10457066;28;20041;-69
2023/06/22 18:08:27;;;;;;;3.25;2.47;;;;;;;18.81;100.00;101538.34;10454314;28;20037;-69
2023/06/22 18:13:27;;;;;;;4.60;2.50;;;;;;;18.76;100.00;101537.25;10437982;28;20029;-69
2023/06/22 18:18:28;;;;;;;4.10;2.08;;;;;;;18.70;100.00;101535.63;10456154;28;20040;-70
2023/06/22 18:23:31;;;;;;;3.70;1.85;;;;;;;18.76;100.00;101550.38;10439130;28;20418;-69
2023/06/22 18:28:31;;;;;;;6.30;3.03;;;;;;;18.65;100.00;101559.97;10454702;28;20033;-68
2023/06/22 18:33:33;;;;;;;3.40;2.00;;;;;;;18.62;100.00;101578.09;10437932;28;20041;-69
2023/06/22 18:38:33;;;;;;;5.20;2.35;;;;;;;18.64;100.00;101578.63;10476771;28;20032;-69
2023/06/22 18:43:37;;;;;;;4.70;2.20;;;;;;;18.55;100.00;101584.00;10461869;28;20029;-68
2023/06/22 18:48:38;;;;;;;5.63;2.60;;;;;;;18.41;100.00;101576.59;10462458;28;20109;-69
2023/06/22 18:53:38;;;;;;;6.00;2.70;;;;;;;18.34;100.00;101593.66;10465359;28;20033;-68
2023/06/22 18:58:39;;;;;;;7.47;3.30;;;;;;;18.17;100.00;101590.41;10429770;28;20037;-68
2023/06/22 19:03:39;;;;;;;7.53;4.93;;;;;;;18.04;100.00;101595.50;10464085;28;20048;-69
2023/06/22 19:09:12;;;;;;;13.63;8.80;;;;;;;17.90;100.00;101594.47;10461193;28;20095;-68
2023/06/22 19:14:20;;;;;;;11.98;6.03;;;;;;;17.74;100.00;101585.34;10423407;28;20067;-68
2023/06/22 19:19:21;;;;;;;9.07;5.63;;;;;;;17.62;100.00;101587.63;10477877;28;20041;-68
2023/06/22 19:24:30;;;;;;;13.68;8.48;;;;;;;17.56;100.00;101581.22;10464187;28;20410;-68
2023/06/22 19:29:31;;;;;;;11.05;7.93;;;;;;;17.51;100.00;101587.66;10428312;28;20048;-68
2023/06/22 19:34:34;;;;;;;10.27;8.32;;;;;;;17.48;100.00;101599.34;10444078;28;20025;-68
2023/06/22 19:39:36;;;;;;;9.00;5.72;;;;;;;17.36;100.00;101576.56;10462278;28;20033;-68
2023/06/22 19:44:36;;;;;;;8.50;4.38;;;;;;;17.31;100.00;101582.97;10460642;28;20029;-68
2023/06/22 19:49:36;;;;;;;7.63;4.38;;;;;;;17.13;100.00;101570.47;10460474;28;20033;-68
2023/06/22 19:54:40;;;;;;;7.97;4.72;;;;;;;17.06;100.00;101563.56;10461961;28;20045;-67
2023/06/22 19:59:44;;;;;;;7.55;5.05;;;;;;;17.01;100.00;101569.97;10460804;28;20029;-68
2023/06/22 20:04:44;;;;;;;8.80;4.78;;;;;;;16.96;100.00;101569.97;10461147;28;20044;-68
2023/06/22 20:09:46;;;;;;;9.73;5.72;;;;;;;16.89;100.00;101575.84;10475708;28;20033;-67
2023/06/22 20:14:46;;;;;;;8.40;4.82;;;;;;;16.87;100.00;101588.34;10461578;28;20033;-67
2023/06/22 20:19:52;;;;;;;8.25;4.30;;;;;;;16.89;100.00;101580.56;10462139;28;20049;-67
2023/06/22 20:24:53;;;;;;;5.90;4.00;;;;;;;16.94;100.00;101589.72;10475448;28;20103;-67
2023/06/22 20:29:54;;;;;;;9.88;5.75;;;;;;;16.96;100.00;101589.44;10451980;28;20037;-67
2023/06/22 20:34:55;;;;;;;7.38;4.78;;;;;;;16.91;100.00;101556.09;10439977;28;20048;-67
2023/06/22 20:39:55;;;;;;;5.90;3.88;;;;;;;16.99;100.00;101575.00;10458741;28;20045;-68
2023/06/22 20:44:55;;;;;;;10.18;3.92;;;;;;;17.04;100.00;101576.94;10458844;28;20080;-67
2023/06/22 20:49:59;;;;;;;10.25;5.25;;;;;;;17.04;100.00;101571.38;10460450;28;20509;-67
2023/06/22 20:54:59;;;;;;;9.60;5.63;;;;;;;16.99;100.00;101563.88;10459804;28;20072;-67
2023/06/22 21:00:01;;;;;;;11.77;8.57;;;;;;;16.98;100.00;101562.19;10458670;28;20493;-67
2023/06/22 21:05:01;;;;;;;10.25;6.75;;;;;;;16.94;100.00;101552.72;10441182;28;20060;-67
2023/06/22 21:10:02;;;;;;;9.93;4.53;;;;;;;16.84;100.00;101541.63;10456915;28;20036;-68
2023/06/22 21:15:04;;;;;;;6.50;4.80;;;;;;;16.99;100.00;101552.75;10442060;28;20041;-67
2023/06/22 21:20:06;;;;;;;10.80;5.28;;;;;;;17.02;100.00;101559.69;10459296;28;20108;-67
2023/06/22 21:25:06;;;;;;;10.45;6.13;;;;;;;17.02;100.00;101560.50;10457023;28;20037;-68
2023/06/22 21:30:08;;;;;;;8.32;5.47;;;;;;;17.01;100.00;101572.75;10445115;28;20033;-67
2023/06/22 21:35:13;;;;;;;20.55;11.73;;;;;;;17.00;100.00;101582.22;10456404;28;21465;-67
2023/06/22 21:40:13;;;;;;;17.13;7.63;;;;;;;16.97;100.00;101593.91;10456445;28;20037;-66
2023/06/22 21:45:14;;;;;;;9.68;7.07;;;;;;;16.89;100.00;101577.78;10458464;28;20036;-67
2023/06/22 21:50:14;;;;;;;12.07;8.20;;;;;;;16.87;100.00;101599.47;10457559;28;20469;-66
2023/06/22 21:55:16;;;;;;;14.95;7.75;;;;;;;16.83;100.00;101615.06;10456823;28;20104;-66
2023/06/22 22:00:16;;;;;;;13.82;8.80;;;;;;;16.85;100.00;101623.94;10457207;28;20100;-66
2023/06/22 22:05:18;;;;;;;15.98;10.70;;;;;;;16.83;100.00;101627.00;10457252;28;20045;-66
2023/06/22 22:10:18;;;;;;;16.33;11.25;;;;;;;16.82;100.00;101616.16;10457016;28;20090;-66
2023/06/22 22:15:20;;;;;;;17.17;10.55;;;;;;;16.77;100.00;101624.47;10456165;28;20552;-66
2023/06/22 22:20:20;;;;;;;18.38;11.38;;;;;;;16.73;100.00;101625.00;10456802;28;20040;-65
2023/06/22 22:25:25;;;;;;;23.83;13.40;;;;;;;16.70;100.00;101622.81;10414111;28;20054;-66
2023/06/22 22:30:25;;;;;;;21.23;11.45;;;;;;;16.69;100.00;101621.13;10454790;28;20029;-66
2023/06/22 22:35:26;;;;;;;20.17;13.25;;;;;;;16.74;100.00;101635.03;10454997;28;20037;-66
2023/06/22 22:40:26;;;;;;;23.52;15.57;;;;;;;16.75;100.00;101636.69;10443479;28;20095;-67